Aérodrome :
LOGIN :

S'inscrire | Disclaimer

   EN    FR    IT 

 










Légende :    VFR   VFR Marginal   IFR   IFR Intensif   IFR Très Intensif
Visi : 
Plafond : 
>= 8 km
>= 3000ft
5 à 8 km
1000 à 3000 ft
1500m à 5 km
500 à 1000 ft
800 à 1500m
200 à 500 ft
< 800m
< 200 ft
Symboles :   Orages  Brouillard  Fortes neiges  Fortes précipitations  Vent > 20 kt
SIGMETs :   Divers  Orages  Givrage  Turbulence  Onde Orograph.  Cendres Volcan.






- Altitude de l'aérodrome : 821 ft
- Code IATA : LYS


LFLL - Lyon St Exupéry / Satolas

DERNIER METAR :
  • 150430Z 34010KT 310V010 2600 +RA FEW013 FEW050CB BKN050 15/13 Q1008 NOSIG

METARs EXPIRÉS :
  • 150400Z 30010KT CAVOK 17/15 Q1008 NOSIG
  • 150330Z 23006KT 150V300 9999 -RA FEW050 BKN060 FEW070CB 18/14 Q1007 RETS NOSIG
  • 150300Z 10005KT 9999 -TSRA FEW050 FEW070CB BKN070 19/13 Q1006 NOSIG
  • 150230Z 11006KT 9999 -RA NSC 19/14 Q1007 NOSIG
  • 150200Z 16004KT 120V200 9999 -RA NSC 19/13 Q1007 NOSIG

TAF AMD TAF LFLL
Valide du 15 à 04h jusqu'au 16 à 06h UTC


150444Z 1504/1606 VRB05KT 4000 RA FEW012 OVC030
TEMPO 1504/1508 1500 +TSRA BKN009 BKN030CB
BECMG 1508/1510 9999 NSW BKN025
BECMG 1510/1512 FEW035TCU SCT040
TEMPO 1512/1517 4000 SHRA BKN035TCU
PROB30
TEMPO 1512/1517 2000 TSRA BKN035CB
FM151800 15004KT CAVOK
PROB40
TEMPO 1603/1606 0400 FG



MET'MAP, la Météo Aéronautique d'un coup d'oeil ! - Copyright ORBIFLY Décembre 2007 - Disclaimer

ORBIFLY MET'MAP TEAM :

Programmation & Développement : Alexandra Zaïnal
Conception & Développement : Baudouin d'Aumeries
Co-Programmation & Développement : Marc-Olivier Méhu
Soutien technique & logistique : Manuel Goepfert

Contact : metmap@orbifly.com




SOURCES & CREDITS :

   NOAA